Aeroporto :
LOGIN :

Iscrizione | Disclaimer

   EN    FR    IT 

 










Sommario :    VFR   VFR Marginale   IFR   IFR Intensivo   IFR Molto Intensivo
Visibilità : 
Base nubi : 
>= 8 km
>= 3000ft
5 / 8 km
1000 / 3000 ft
1500m / 5 km
500 / 1000 ft
800 / 1500m
200 / 500 ft
< 800m
< 200 ft
Simboli :   Temporali  Nebbia  Neve Forte  Precipitazioni Forti  Vento > 20 kt
SIGMETs :   Varie  Temporali  Ghiacco  Turbolenza  Onda orograficha  Ceneri Vulcaniche






- Altitudine del aeroporto : 27 ft
- Codice IATA : PMI


LEPA - Palma de Mallorca

ULTIMO METAR :
  • 070400Z 00000KT 9999 FEW018 18/17 Q1005 NOSIG

METARs OBSOLETI :
  • 070330Z 08003KT 9999 FEW018 18/17 Q1004 NOSIG
  • 070300Z 00000KT 9999 FEW018 18/17 Q1005 NOSIG
  • 070230Z VRB02KT 9999 FEW018 18/17 Q1005 NOSIG
  • 070200Z 00000KT 9999 FEW018 18/17 Q1005 NOSIG
  • 070130Z 00000KT 9999 FEW018 18/17 Q1005 NOSIG

TAF TAF LEPA
Valido dal 07 a 00 ore il 08 a 00 ore UTC


062300Z 0700/0724 VRB04KT 9999 FEW014 TX28/0712Z TN16/0705Z
PROB30
TEMPO 0700/0706 3000 BR BKN010
TEMPO 0709/0713 22008KT
TEMPO 0711/0715 33012KT
PROB40
TEMPO 0711/0717 4000 TSRA FEW030CB
BECMG 0713/0715 06013KT
PROB40
TEMPO 0721/0724 2000 +SHRA TS SCT020CB



MetMap, La meteo Aeronautica in un colpo d'occhio ! - Copyright ORBIFLY Dicembre 2007 - Disclaimer

ORBIFLY MET'MAP TEAM :

Programmazione e sviluppo : Alexandra Zaïnal
Concezione : Baudouin d'Aumeries
Aiuto per la programmazione : Marc-Olivier Méhu
Supporto tecnico e logistico : Manuel Goepfert
Aiuto per la traduzione : Arnaldo La Scala

Contatto : metmap@orbifly.com




FONTI E CREDITI :

   NOAA